createdAt,value
2023-04-02T00:00:16.153Z,99526.97
2023-04-02T00:04:40.343Z,99543.75
2023-04-02T00:08:42.431Z,99547.50
2023-04-02T00:12:59.759Z,99552.25
2023-04-02T00:17:05.346Z,99560.38
2023-04-02T00:21:22.316Z,99558.41
2023-04-02T00:25:28.758Z,99573.34
2023-04-02T00:29:30.696Z,99579.03
2023-04-02T00:33:33.265Z,99583.13
2023-04-02T00:37:39.314Z,99589.03
2023-04-02T00:41:46.741Z,99592.66
2023-04-02T00:45:56.134Z,99593.84
2023-04-02T00:50:07.862Z,99593.84
2023-04-02T00:54:15.883Z,99602.16
2023-04-02T00:58:34.140Z,99597.69
2023-04-02T01:02:40.750Z,99598.78
2023-04-02T01:06:43.895Z,99599.66
2023-04-02T01:11:02.135Z,99598.25
2023-04-02T01:15:13.996Z,99598.88
2023-04-02T01:19:53.599Z,99599.44
2023-04-02T01:24:06.055Z,99606.72
2023-04-02T01:28:19.463Z,99618.31
2023-04-02T01:32:23.583Z,99610.06
2023-04-02T01:36:38.037Z,99616.34
2023-04-02T01:40:54.066Z,99612.75
2023-04-02T01:45:05.705Z,99614.19
2023-04-02T01:49:26.002Z,99620.66
2023-04-02T01:53:30.746Z,99618.91
2023-04-02T01:57:33.228Z,99616.47
2023-04-02T02:01:48.488Z,99613.56
2023-04-02T02:05:51.618Z,99621.41
2023-04-02T02:09:54.161Z,99620.47
2023-04-02T02:13:58.808Z,99619.84
2023-04-02T02:18:05.358Z,99624.31
2023-04-02T02:22:31.209Z,99634.25
2023-04-02T02:26:35.933Z,99639.47
2023-04-02T02:31:07.016Z,99637.28
2023-04-02T02:35:19.321Z,99645.28
2023-04-02T02:39:32.259Z,99647.91
2023-04-02T02:43:38.790Z,99653.19
2023-04-02T02:47:44.074Z,99662.38
2023-04-02T02:52:13.884Z,99666.56
2023-04-02T02:56:30.794Z,99671.78
2023-04-02T03:00:35.513Z,99678.03
2023-04-02T03:04:38.543Z,99683.41
2023-04-02T03:09:12.569Z,99697.38
2023-04-02T03:13:15.021Z,99689.56
2023-04-02T03:18:02.413Z,99705.69
2023-04-02T03:22:21.765Z,99712.53
2023-04-02T03:26:39.729Z,99714.88
2023-04-02T03:30:52.888Z,99713.69
2023-04-02T03:34:59.653Z,99713.19
2023-04-02T03:39:13.208Z,99719.50
2023-04-02T03:43:22.749Z,99729.16
2023-04-02T03:47:36.741Z,99728.69
2023-04-02T03:52:01.921Z,99741.50
2023-04-02T03:56:06.613Z,99744.66
2023-04-02T04:00:17.277Z,99750.44
2023-04-02T04:04:30.299Z,99755.38
2023-04-02T04:08:50.297Z,99760.22
2023-04-02T04:12:56.974Z,99776.47
2023-04-02T04:17:09.923Z,99774.09
2023-04-02T04:21:37.373Z,99770.13
2023-04-02T04:26:19.870Z,99783.19
2023-04-02T04:30:42.063Z,99797.47
2023-04-02T04:34:51.553Z,99799.94
2023-04-02T04:38:59.398Z,99796.41
2023-04-02T04:43:12.465Z,99801.78
2023-04-02T04:47:20.890Z,99806.75
2023-04-02T04:51:31.860Z,99825.94
2023-04-02T04:55:44.404Z,99829.88
2023-04-02T05:00:07.040Z,99842.56
2023-04-02T05:04:26.280Z,99843.28
2023-04-02T05:08:35.626Z,99848.47
2023-04-02T05:12:48.577Z,99845.41
2023-04-02T05:17:10.841Z,99851.44
2023-04-02T05:21:42.225Z,99856.88
2023-04-02T05:26:09.501Z,99857.81
2023-04-02T05:30:38.569Z,99878.97
2023-04-02T05:34:46.413Z,99884.66
2023-04-02T05:38:51.056Z,99906.41
2023-04-02T05:43:02.627Z,99909.50
2023-04-02T05:47:18.293Z,99917.47
2023-04-02T05:51:36.275Z,99923.84
2023-04-02T05:55:57.196Z,99930.09
2023-04-02T06:00:07.422Z,99933.69
2023-04-02T06:04:24.565Z,99945.50
2023-04-02T06:08:37.472Z,99962.69
2023-04-02T06:12:45.367Z,99966.13
2023-04-02T06:16:48.294Z,99974.84
2023-04-02T06:20:50.460Z,99960.78
2023-04-02T06:25:02.924Z,99969.22
2023-04-02T06:29:28.469Z,99969.84
2023-04-02T06:33:31.730Z,99976.63
2023-04-02T06:37:38.112Z,99984.44
2023-04-02T06:42:04.833Z,99985.69
2023-04-02T06:46:36.931Z,99979.78
2023-04-02T06:50:58.123Z,99982.31
2023-04-02T06:55:04.819Z,99983.69
2023-04-02T06:59:07.838Z,99982.28
2023-04-02T07:03:19.704Z,99992.38
2023-04-02T07:07:21.876Z,100001.19
2023-04-02T07:11:26.229Z,100010.28
2023-04-02T07:15:32.327Z,100002.16
2023-04-02T07:19:34.909Z,100014.69
2023-04-02T07:23:37.310Z,100032.72
2023-04-02T07:27:39.330Z,100048.28
2023-04-02T07:31:41.670Z,100054.25
2023-04-02T07:35:44.237Z,100066.06
2023-04-02T07:39:46.464Z,100069.41
2023-04-02T07:43:48.853Z,100086.16
2023-04-02T07:47:51.448Z,100104.63
2023-04-02T07:51:53.674Z,100099.25
2023-04-02T07:55:57.551Z,100108.91
2023-04-02T07:59:59.617Z,100112.91
2023-04-02T08:04:04.418Z,100105.34
2023-04-02T08:08:06.504Z,100112.50
2023-04-02T08:12:13.218Z,100130.09
2023-04-02T08:16:16.070Z,100160.19
2023-04-02T08:20:20.910Z,100170.38
2023-04-02T08:24:23.335Z,100172.78
2023-04-02T08:28:25.566Z,100166.44
2023-04-02T08:32:29.100Z,100171.03
2023-04-02T08:36:35.978Z,100170.44
2023-04-02T08:40:42.526Z,100179.50
2023-04-02T08:45:24.853Z,100184.78
2023-04-02T08:49:32.724Z,100209.81
2023-04-02T08:53:37.635Z,100213.28
2023-04-02T08:58:02.384Z,100222.28
2023-04-02T09:02:39.528Z,100234.09
2023-04-02T09:06:43.845Z,100242.34
2023-04-02T09:10:53.408Z,100232.88
2023-04-02T09:15:05.548Z,100233.75
2023-04-02T09:19:41.763Z,100230.91
2023-04-02T09:23:43.841Z,100238.41
2023-04-02T09:27:50.024Z,100236.59
2023-04-02T09:32:07.433Z,100233.63
2023-04-02T09:36:18.361Z,100218.00
2023-04-02T09:40:32.115Z,100229.50
2023-04-02T09:44:35.080Z,100214.34
2023-04-02T09:48:58.374Z,100232.44
2023-04-02T09:53:28.893Z,100231.47
2023-04-02T09:57:32.855Z,100232.44
2023-04-02T10:01:37.593Z,100235.44
2023-04-02T10:05:41.491Z,100250.63
2023-04-02T10:09:43.746Z,100241.06
2023-04-02T10:13:57.265Z,100251.59
2023-04-02T10:18:22.814Z,100260.16
2023-04-02T10:22:28.159Z,100265.25
2023-04-02T10:26:55.101Z,100281.53
2023-04-02T10:31:09.862Z,100278.03
2023-04-02T10:35:52.384Z,100298.22
2023-04-02T10:40:01.923Z,100303.88
2023-04-02T10:44:31.352Z,100302.59
2023-04-02T10:48:58.708Z,100301.72
2023-04-02T10:53:07.789Z,100302.38
2023-04-02T10:57:24.113Z,100305.75
2023-04-02T11:01:30.411Z,100315.56
2023-04-02T11:05:46.545Z,100322.50
2023-04-02T11:09:52.560Z,100320.59
2023-04-02T11:14:15.473Z,100316.69
2023-04-02T11:18:32.710Z,100329.72
2023-04-02T11:22:34.807Z,100344.13
2023-04-02T11:26:47.370Z,100330.94
2023-04-02T11:30:49.692Z,100350.72
2023-04-02T11:35:05.244Z,100361.38
2023-04-02T11:39:17.077Z,100375.03
2023-04-02T11:43:49.706Z,100371.00
2023-04-02T11:48:01.032Z,100367.22
2023-04-02T11:52:12.066Z,100371.84
2023-04-02T11:56:26.091Z,100368.88
2023-04-02T12:00:47.637Z,100360.47
2023-04-02T12:05:09.208Z,100375.84
2023-04-02T12:09:42.475Z,100375.34
2023-04-02T12:13:44.511Z,100377.91
2023-04-02T12:17:46.840Z,100374.25
2023-04-02T12:21:51.289Z,100379.50
2023-04-02T12:25:58.555Z,100380.34
2023-04-02T12:30:17.799Z,100385.25
2023-04-02T12:34:22.721Z,100381.25
2023-04-02T12:38:28.079Z,100389.19
2023-04-02T12:42:39.095Z,100392.00
2023-04-02T12:46:41.372Z,100387.53
2023-04-02T12:50:43.622Z,100391.25
2023-04-02T12:54:53.649Z,100398.31
2023-04-02T12:59:01.254Z,100412.75
2023-04-02T13:03:06.473Z,100423.69
2023-04-02T13:07:17.559Z,100417.19
2023-04-02T13:11:20.323Z,100410.63
2023-04-02T13:15:27.178Z,100415.41
2023-04-02T13:19:34.103Z,100426.59
2023-04-02T13:23:37.645Z,100434.53
2023-04-02T13:27:39.484Z,100447.59
2023-04-02T13:31:41.571Z,100443.78
2023-04-02T13:35:44.111Z,100450.88
2023-04-02T13:39:46.235Z,100441.53
2023-04-02T13:43:52.850Z,100437.97
2023-04-02T13:47:57.285Z,100455.97
2023-04-02T13:52:03.166Z,100466.66
2023-04-02T13:56:05.504Z,100463.91
2023-04-02T14:00:08.105Z,100463.78
2023-04-02T14:04:13.664Z,100473.41
2023-04-02T14:08:44.198Z,100476.69
2023-04-02T14:12:59.852Z,100472.09
2023-04-02T14:17:28.523Z,100476.84
2023-04-02T14:21:51.909Z,100488.22
2023-04-02T14:26:17.493Z,100502.03
2023-04-02T14:30:38.454Z,100509.88
2023-04-02T14:34:58.813Z,100516.88
2023-04-02T14:39:22.435Z,100516.50
2023-04-02T14:43:33.176Z,100520.03
2023-04-02T14:47:42.899Z,100530.84
2023-04-02T14:51:51.497Z,100535.06
2023-04-02T14:55:54.630Z,100549.97
2023-04-02T15:00:20.910Z,100542.50
2023-04-02T15:04:30.987Z,100560.25
2023-04-02T15:09:20.330Z,100557.31
2023-04-02T15:13:45.399Z,100566.19
2023-04-02T15:17:47.395Z,100571.09
2023-04-02T15:22:00.000Z,100580.91
2023-04-02T15:26:10.834Z,100584.56
2023-04-02T15:30:18.744Z,100601.47
2023-04-02T15:34:32.435Z,100603.16
2023-04-02T15:38:42.354Z,100603.16
2023-04-02T15:42:52.579Z,100604.81
2023-04-02T15:47:22.527Z,100621.56
2023-04-02T15:51:24.498Z,100629.56
2023-04-02T15:55:39.492Z,100632.22
2023-04-02T16:00:00.723Z,100646.19
2023-04-02T16:04:02.782Z,100649.72
2023-04-02T16:08:13.509Z,100648.63
2023-04-02T16:12:19.433Z,100661.66
2023-04-02T16:16:32.790Z,100681.22
2023-04-02T16:20:40.712Z,100691.03
2023-04-02T16:24:43.008Z,100695.06
2023-04-02T16:29:14.197Z,100700.03
2023-04-02T16:33:24.989Z,100701.75
2023-04-02T16:37:39.889Z,100712.72
2023-04-02T16:42:05.803Z,100720.00
2023-04-02T16:46:15.733Z,100730.50
2023-04-02T16:50:36.567Z,100733.72
2023-04-02T16:54:51.296Z,100732.72
2023-04-02T16:58:58.111Z,100733.59
2023-04-02T17:03:47.646Z,100747.63
2023-04-02T17:08:01.765Z,100750.22
2023-04-02T17:12:11.699Z,100751.16
2023-04-02T17:16:21.067Z,100757.31
2023-04-02T17:20:25.052Z,100768.50
2023-04-02T17:24:38.914Z,100767.38
2023-04-02T17:28:41.843Z,100778.56
2023-04-02T17:32:44.647Z,100782.97
2023-04-02T17:36:55.648Z,100795.03
2023-04-02T17:41:05.681Z,100790.69
2023-04-02T17:45:42.870Z,100803.44
2023-04-02T17:50:09.160Z,100804.19
2023-04-02T17:54:25.941Z,100807.78
2023-04-02T17:58:52.930Z,100806.88
2023-04-02T18:03:09.330Z,100802.59
2023-04-02T18:07:33.391Z,100803.50
2023-04-02T18:11:54.535Z,100806.69
2023-04-02T18:16:13.398Z,100806.41
2023-04-02T18:20:38.891Z,100809.41
2023-04-02T18:24:50.689Z,100819.00
2023-04-02T18:28:59.064Z,100812.75
2023-04-02T18:33:30.890Z,100820.53
2023-04-02T18:37:41.682Z,100820.69
2023-04-02T18:41:59.542Z,100825.72
2023-04-02T18:46:09.175Z,100821.41
2023-04-02T18:50:33.631Z,100834.97
2023-04-02T18:54:41.305Z,100831.59
2023-04-02T18:58:56.929Z,100833.31
2023-04-02T19:03:27.001Z,100854.69
2023-04-02T19:07:33.698Z,100841.28
2023-04-02T19:11:36.039Z,100845.19
2023-04-02T19:16:10.682Z,100847.84
2023-04-02T19:20:29.878Z,100843.38
2023-04-02T19:25:10.146Z,100847.03
2023-04-02T19:29:40.518Z,100857.25
2023-04-02T19:34:32.317Z,100854.69
2023-04-02T19:38:49.136Z,100862.34
2023-04-02T19:42:54.735Z,100866.81
2023-04-02T19:46:56.831Z,100863.88
2023-04-02T19:50:58.992Z,100865.75
2023-04-02T19:55:01.040Z,100871.75
2023-04-02T19:59:17.246Z,100878.66
2023-04-02T20:03:20.582Z,100880.41
2023-04-02T20:07:22.627Z,100871.69
2023-04-02T20:11:26.614Z,100887.38
2023-04-02T20:15:47.376Z,100892.41
2023-04-02T20:19:49.455Z,100890.00
2023-04-02T20:23:55.496Z,100887.38
2023-04-02T20:27:57.853Z,100891.50
2023-04-02T20:31:59.888Z,100901.81
2023-04-02T20:36:08.096Z,100899.19
2023-04-02T20:40:10.769Z,100916.69
2023-04-02T20:44:13.065Z,100920.13
2023-04-02T20:48:15.178Z,100926.16
2023-04-02T20:52:17.313Z,100929.88
2023-04-02T20:56:20.932Z,100955.78
2023-04-02T21:00:23.210Z,100968.78
2023-04-02T21:04:25.632Z,100995.78
2023-04-02T21:08:27.870Z,101010.50
2023-04-02T21:12:31.120Z,101032.28
2023-04-02T21:16:33.934Z,101035.63
2023-04-02T21:20:36.504Z,101043.53
2023-04-02T21:24:38.604Z,101049.00
2023-04-02T21:28:41.486Z,101053.19
2023-04-02T21:32:43.571Z,101061.06
2023-04-02T21:36:48.278Z,101069.56
2023-04-02T21:40:50.518Z,101080.41
2023-04-02T21:44:53.367Z,101081.16
2023-04-02T21:48:58.383Z,101094.91
2023-04-02T21:53:00.616Z,101096.06
2023-04-02T21:57:03.131Z,101097.50
2023-04-02T22:01:09.097Z,101102.13
2023-04-02T22:05:13.690Z,101108.06
2023-04-02T22:09:18.431Z,101109.94
2023-04-02T22:13:20.595Z,101105.56
2023-04-02T22:17:22.798Z,101119.44
2023-04-02T22:21:25.722Z,101122.97
2023-04-02T22:25:27.482Z,101135.13
2023-04-02T22:29:29.563Z,101137.88
2023-04-02T22:33:32.437Z,101136.84
2023-04-02T22:37:34.590Z,101151.69
2023-04-02T22:41:36.801Z,101150.97
2023-04-02T22:45:38.919Z,101153.50
2023-04-02T22:49:41.205Z,101155.19
2023-04-02T22:53:43.886Z,101162.28
2023-04-02T22:57:46.154Z,101159.84
2023-04-02T23:01:48.393Z,101154.81
2023-04-02T23:06:05.577Z,101159.19
2023-04-02T23:10:07.956Z,101156.63
2023-04-02T23:14:10.330Z,101166.31
2023-04-02T23:18:12.392Z,101169.84
2023-04-02T23:22:14.472Z,101166.47
2023-04-02T23:26:21.232Z,101169.94
2023-04-02T23:30:23.423Z,101172.81
2023-04-02T23:34:25.481Z,101177.19
2023-04-02T23:38:27.556Z,101179.00
2023-04-02T23:42:29.641Z,101183.25
2023-04-02T23:46:32.940Z,101186.03
2023-04-02T23:50:35.376Z,101186.94
2023-04-02T23:54:37.709Z,101194.88
2023-04-02T23:58:39.805Z,101201.84
